createdAt,value
2023-11-16T00:00:40.593Z,0.82
2023-11-16T00:03:07.888Z,0.82
2023-11-16T00:05:37.909Z,0.80
2023-11-16T00:08:08.697Z,0.70
2023-11-16T00:10:38.488Z,0.60
2023-11-16T00:13:09.123Z,0.75
2023-11-16T00:15:37.080Z,0.60
2023-11-16T00:18:07.369Z,0.68
2023-11-16T00:20:34.305Z,0.70
2023-11-16T00:23:01.004Z,0.57
2023-11-16T00:25:27.612Z,1.27
2023-11-16T00:27:54.265Z,0.80
2023-11-16T00:30:21.862Z,0.73
2023-11-16T00:32:49.550Z,1.27
2023-11-16T00:35:16.440Z,1.03
2023-11-16T00:37:43.521Z,0.63
2023-11-16T00:40:11.703Z,1.15
2023-11-16T00:42:38.519Z,0.98
2023-11-16T00:45:07.365Z,0.50
2023-11-16T00:47:34.512Z,0.33
2023-11-16T00:50:01.298Z,0.38
2023-11-16T00:52:29.741Z,0.30
2023-11-16T00:54:59.308Z,0.47
2023-11-16T00:57:25.971Z,0.30
2023-11-16T00:59:52.479Z,0.30
2023-11-16T01:02:19.178Z,0.80
2023-11-16T01:04:45.932Z,0.30
2023-11-16T01:07:13.726Z,0.30
2023-11-16T01:09:40.489Z,0.40
2023-11-16T01:12:15.683Z,0.40
2023-11-16T01:14:44.168Z,0.68
2023-11-16T01:17:19.628Z,0.30
2023-11-16T01:19:48.175Z,0.38
2023-11-16T01:22:20.000Z,0.43
2023-11-16T01:24:46.819Z,0.40
2023-11-16T01:27:19.359Z,0.35
2023-11-16T01:29:46.698Z,0.40
2023-11-16T01:32:14.444Z,0.30
2023-11-16T01:34:43.295Z,0.22
2023-11-16T01:37:11.254Z,0.33
2023-11-16T01:39:41.264Z,0.47
2023-11-16T01:42:10.857Z,0.35
2023-11-16T01:44:38.194Z,0.47
2023-11-16T01:47:09.433Z,0.32
2023-11-16T01:49:36.847Z,0.33
2023-11-16T01:52:04.806Z,0.40
2023-11-16T01:54:36.555Z,0.40
2023-11-16T01:57:05.093Z,0.30
2023-11-16T01:59:36.085Z,0.30
2023-11-16T02:02:05.727Z,0.40
2023-11-16T02:04:35.995Z,0.40
2023-11-16T02:07:05.243Z,0.47
2023-11-16T02:09:31.961Z,0.30
2023-11-16T02:11:58.597Z,0.47
2023-11-16T02:14:25.240Z,0.20
2023-11-16T02:16:51.966Z,0.32
2023-11-16T02:19:32.618Z,0.30
2023-11-16T02:22:00.783Z,0.20
2023-11-16T02:24:28.652Z,0.30
2023-11-16T02:26:56.107Z,0.30
2023-11-16T02:29:22.875Z,0.30
2023-11-16T02:31:49.488Z,0.50
2023-11-16T02:34:16.188Z,0.35
2023-11-16T02:36:43.136Z,0.25
2023-11-16T02:39:10.020Z,0.30
2023-11-16T02:41:39.642Z,0.30
2023-11-16T02:44:08.392Z,0.30
2023-11-16T02:46:35.744Z,0.30
2023-11-16T02:49:02.657Z,0.40
2023-11-16T02:51:29.345Z,0.30
2023-11-16T02:53:56.175Z,0.70
2023-11-16T02:56:22.854Z,0.75
2023-11-16T02:58:50.813Z,0.50
2023-11-16T03:01:17.511Z,0.50
2023-11-16T03:03:44.329Z,6.43
2023-11-16T03:06:11.413Z,0.80
2023-11-16T03:08:38.736Z,0.50
2023-11-16T03:11:07.004Z,0.32
2023-11-16T03:13:33.674Z,0.32
2023-11-16T03:16:00.262Z,0.40
2023-11-16T03:18:27.643Z,0.30
2023-11-16T03:20:54.135Z,0.65
2023-11-16T03:23:22.122Z,0.30
2023-11-16T03:25:48.731Z,0.40
2023-11-16T03:28:15.520Z,0.40
2023-11-16T03:30:42.215Z,0.30
2023-11-16T03:33:13.795Z,0.40
2023-11-16T03:35:40.604Z,0.60
2023-11-16T03:38:07.172Z,0.50
2023-11-16T03:40:35.329Z,0.50
2023-11-16T03:43:01.893Z,1.13
2023-11-16T03:45:28.680Z,0.88
2023-11-16T03:47:55.535Z,0.38
2023-11-16T03:50:22.487Z,0.40
2023-11-16T03:52:49.263Z,0.37
2023-11-16T03:55:15.894Z,0.43
2023-11-16T03:57:42.498Z,0.57
2023-11-16T04:00:10.725Z,0.40
2023-11-16T04:02:37.517Z,0.80
2023-11-16T04:05:06.710Z,0.40
2023-11-16T04:07:37.070Z,0.25
2023-11-16T04:10:05.683Z,0.30
2023-11-16T04:12:32.475Z,0.52
2023-11-16T04:14:59.058Z,0.63
2023-11-16T04:17:27.544Z,0.30
2023-11-16T04:19:54.455Z,0.40
2023-11-16T04:22:23.380Z,0.40
2023-11-16T04:24:55.643Z,0.30
2023-11-16T04:27:28.156Z,0.40
2023-11-16T04:29:55.127Z,0.40
2023-11-16T04:32:24.990Z,0.68
2023-11-16T04:34:51.893Z,1.10
2023-11-16T04:37:20.661Z,0.65
2023-11-16T04:39:47.241Z,0.63
2023-11-16T04:42:15.080Z,0.60
2023-11-16T04:44:46.075Z,0.30
2023-11-16T04:47:12.895Z,0.55
2023-11-16T04:49:40.110Z,0.50
2023-11-16T04:52:07.946Z,1.05
2023-11-16T04:54:35.633Z,0.50
2023-11-16T04:57:02.613Z,0.50
2023-11-16T04:59:29.316Z,0.50
2023-11-16T05:01:55.811Z,0.50
2023-11-16T05:04:22.661Z,0.88
2023-11-16T05:06:49.299Z,1.50
2023-11-16T05:09:16.430Z,0.80
2023-11-16T05:11:43.044Z,0.50
2023-11-16T05:14:09.797Z,1.13
2023-11-16T05:16:36.786Z,0.70
2023-11-16T05:19:03.627Z,0.63
2023-11-16T05:21:30.346Z,0.75
2023-11-16T05:23:57.161Z,0.68
2023-11-16T05:26:23.842Z,0.50
2023-11-16T05:28:50.538Z,0.63
2023-11-16T05:31:17.173Z,0.30
2023-11-16T05:33:43.827Z,0.35
2023-11-16T05:36:12.841Z,0.90
2023-11-16T05:38:39.960Z,0.85
2023-11-16T05:41:08.032Z,0.88
2023-11-16T05:43:34.641Z,0.40
2023-11-16T05:46:03.631Z,0.52
2023-11-16T05:48:30.321Z,0.60
2023-11-16T05:50:58.395Z,0.60
2023-11-16T05:53:25.347Z,0.35
2023-11-16T05:55:53.675Z,0.50
2023-11-16T05:58:20.208Z,0.60
2023-11-16T06:00:46.955Z,0.63
2023-11-16T06:03:13.592Z,0.82
2023-11-16T06:05:41.192Z,1.23
2023-11-16T06:08:08.129Z,0.80
2023-11-16T06:10:34.928Z,0.80
2023-11-16T06:13:01.899Z,0.50
2023-11-16T06:15:31.932Z,0.50
2023-11-16T06:18:02.955Z,1.55
2023-11-16T06:20:30.434Z,0.50
2023-11-16T06:22:58.122Z,0.40
2023-11-16T06:25:25.158Z,0.35
2023-11-16T06:27:52.182Z,0.52
2023-11-16T06:30:19.793Z,0.40
2023-11-16T06:32:46.672Z,0.40
2023-11-16T06:35:13.374Z,0.50
2023-11-16T06:37:39.983Z,0.60
2023-11-16T06:40:11.022Z,1.25
2023-11-16T06:42:39.491Z,1.23
2023-11-16T06:45:07.869Z,1.30
2023-11-16T06:47:37.140Z,1.20
2023-11-16T06:50:05.463Z,1.30
2023-11-16T06:52:32.393Z,1.10
2023-11-16T06:55:00.376Z,2.97
2023-11-16T06:57:28.217Z,1.70
2023-11-16T06:59:55.463Z,1.85
2023-11-16T07:02:24.037Z,1.60
2023-11-16T07:04:50.885Z,2.55
2023-11-16T07:07:18.114Z,2.83
2023-11-16T07:09:50.942Z,2.73
2023-11-16T07:12:22.005Z,2.50
2023-11-16T07:14:55.531Z,3.03
2023-11-16T07:17:22.898Z,2.80
2023-11-16T07:19:50.242Z,3.30
2023-11-16T07:22:18.342Z,3.47
2023-11-16T07:24:45.944Z,3.53
2023-11-16T07:27:13.994Z,3.40
2023-11-16T07:29:45.303Z,3.10
2023-11-16T07:32:13.078Z,3.08
2023-11-16T07:34:40.814Z,2.87
2023-11-16T07:37:08.147Z,3.63
2023-11-16T07:39:35.619Z,3.35
2023-11-16T07:42:02.885Z,4.20
2023-11-16T07:44:29.649Z,4.28
2023-11-16T07:46:56.548Z,4.07
2023-11-16T07:49:24.356Z,4.20
2023-11-16T07:51:53.347Z,3.95
2023-11-16T07:54:20.296Z,4.70
2023-11-16T07:56:55.523Z,5.03
2023-11-16T07:59:32.008Z,4.07
2023-11-16T08:02:01.780Z,4.15
2023-11-16T08:04:29.314Z,4.35
2023-11-16T08:06:57.812Z,4.43
2023-11-16T08:09:25.956Z,4.53
2023-11-16T08:11:55.742Z,4.67
2023-11-16T08:14:32.649Z,5.03
2023-11-16T08:17:00.303Z,5.60
2023-11-16T08:19:27.817Z,4.78
2023-11-16T08:21:58.381Z,5.45
2023-11-16T08:24:28.801Z,4.40
2023-11-16T08:26:59.821Z,5.43
2023-11-16T08:29:27.062Z,4.72
2023-11-16T08:31:58.515Z,4.90
2023-11-16T08:34:28.081Z,5.38
2023-11-16T08:36:54.651Z,5.10
2023-11-16T08:39:21.359Z,5.75
2023-11-16T08:41:50.247Z,5.32
2023-11-16T08:44:19.576Z,6.45
2023-11-16T08:46:54.106Z,6.22
2023-11-16T08:49:22.474Z,6.73
2023-11-16T08:51:49.339Z,6.20
2023-11-16T08:54:17.818Z,4.65
2023-11-16T08:56:47.326Z,6.05
2023-11-16T08:59:15.617Z,5.32
2023-11-16T09:01:44.616Z,5.17
2023-11-16T09:04:14.597Z,5.22
2023-11-16T09:06:44.970Z,5.68
2023-11-16T09:09:31.962Z,5.28
2023-11-16T09:11:59.397Z,6.07
2023-11-16T09:14:29.414Z,5.73
2023-11-16T09:17:12.362Z,5.53
2023-11-16T09:19:40.507Z,5.95
2023-11-16T09:22:09.750Z,5.25
2023-11-16T09:24:41.049Z,5.97
2023-11-16T09:27:08.334Z,5.90
2023-11-16T09:29:41.103Z,6.28
2023-11-16T09:32:12.613Z,6.30
2023-11-16T09:34:40.958Z,6.68
2023-11-16T09:37:08.404Z,6.22
2023-11-16T09:39:35.342Z,6.67
2023-11-16T09:42:08.834Z,7.00
2023-11-16T09:44:40.366Z,5.80
2023-11-16T09:47:15.001Z,6.82
2023-11-16T09:49:43.189Z,5.82
2023-11-16T09:52:10.424Z,6.70
2023-11-16T09:54:41.141Z,6.60
2023-11-16T09:57:10.135Z,5.95
2023-11-16T09:59:44.223Z,6.65
2023-11-16T10:02:16.897Z,5.40
2023-11-16T10:04:45.142Z,5.93
2023-11-16T10:07:17.738Z,5.30
2023-11-16T10:09:44.936Z,5.40
2023-11-16T10:12:15.252Z,5.18
2023-11-16T10:14:52.764Z,4.85
2023-11-16T10:17:22.707Z,3.70
2023-11-16T10:19:49.341Z,3.08
2023-11-16T10:22:15.952Z,4.05
2023-11-16T10:24:42.873Z,4.00
2023-11-16T10:27:11.006Z,3.70
2023-11-16T10:29:38.161Z,3.33
2023-11-16T10:32:07.538Z,4.10
2023-11-16T10:34:38.274Z,4.03
2023-11-16T10:37:07.920Z,3.40
2023-11-16T10:39:35.217Z,3.28
2023-11-16T10:42:03.506Z,3.43
2023-11-16T10:44:34.623Z,3.47
2023-11-16T10:47:02.955Z,3.67
2023-11-16T10:49:30.515Z,3.25
2023-11-16T10:52:02.306Z,3.42
2023-11-16T10:54:33.685Z,3.10
2023-11-16T10:57:00.816Z,3.03
2023-11-16T10:59:28.891Z,3.88
2023-11-16T11:01:58.777Z,3.05
2023-11-16T11:04:27.120Z,3.03
2023-11-16T11:06:56.287Z,3.33
2023-11-16T11:09:40.203Z,3.25
2023-11-16T11:12:14.739Z,3.08
2023-11-16T11:14:52.790Z,3.17
2023-11-16T11:17:20.174Z,2.83
2023-11-16T11:20:01.725Z,3.00
2023-11-16T11:22:33.384Z,3.03
2023-11-16T11:25:04.026Z,2.30
2023-11-16T11:27:31.998Z,2.78
2023-11-16T11:30:12.570Z,2.72
2023-11-16T11:32:53.209Z,3.50
2023-11-16T11:35:27.084Z,3.20
2023-11-16T11:37:53.828Z,2.95
2023-11-16T11:40:25.284Z,2.47
2023-11-16T11:42:53.926Z,3.08
2023-11-16T11:45:21.654Z,2.70
2023-11-16T11:47:49.868Z,3.00
2023-11-16T11:50:23.359Z,11.40
2023-11-16T11:52:51.623Z,2.38
2023-11-16T11:55:22.893Z,2.45
2023-11-16T11:57:52.333Z,2.30
2023-11-16T12:00:19.240Z,2.25
2023-11-16T12:02:47.664Z,2.10
2023-11-16T12:05:19.315Z,1.92
2023-11-16T12:07:59.854Z,2.33
2023-11-16T12:10:26.618Z,3.13
2023-11-16T12:12:57.935Z,2.53
2023-11-16T12:15:25.248Z,2.92
2023-11-16T12:17:52.114Z,2.75
2023-11-16T12:20:19.153Z,2.60
2023-11-16T12:22:45.936Z,2.80
2023-11-16T12:25:13.931Z,2.60
2023-11-16T12:27:44.222Z,2.83
2023-11-16T12:30:19.891Z,2.15
2023-11-16T12:32:47.190Z,2.60
2023-11-16T12:35:15.704Z,2.53
2023-11-16T12:37:43.944Z,2.15
2023-11-16T12:40:18.546Z,2.75
2023-11-16T12:42:46.561Z,2.35
2023-11-16T12:45:14.452Z,2.60
2023-11-16T12:47:41.640Z,1.93
2023-11-16T12:50:10.005Z,1.98
2023-11-16T12:52:37.823Z,2.22
2023-11-16T12:55:08.592Z,1.63
2023-11-16T12:57:35.360Z,1.80
2023-11-16T13:00:02.182Z,1.60
2023-11-16T13:02:29.260Z,2.08
2023-11-16T13:04:57.009Z,1.73
2023-11-16T13:07:23.986Z,1.67
2023-11-16T13:09:50.597Z,1.35
2023-11-16T13:12:22.544Z,1.47
2023-11-16T13:14:50.110Z,1.60
2023-11-16T13:17:17.013Z,1.95
2023-11-16T13:19:43.965Z,1.27
2023-11-16T13:22:11.249Z,1.70
2023-11-16T13:24:42.627Z,1.47
2023-11-16T13:27:10.201Z,1.50
2023-11-16T13:29:36.850Z,2.13
2023-11-16T13:32:05.985Z,1.80
2023-11-16T13:34:33.418Z,1.40
2023-11-16T13:37:00.611Z,1.23
2023-11-16T13:39:32.810Z,1.40
2023-11-16T13:42:00.340Z,1.63
2023-11-16T13:44:27.536Z,1.20
2023-11-16T13:46:54.354Z,0.93
2023-11-16T13:49:21.121Z,1.13
2023-11-16T13:51:49.743Z,0.73
2023-11-16T13:54:16.877Z,2.08
2023-11-16T13:56:49.803Z,1.35
2023-11-16T13:59:19.891Z,1.02
2023-11-16T14:01:49.885Z,1.07
2023-11-16T14:04:16.750Z,0.88
2023-11-16T14:06:44.258Z,1.90
2023-11-16T14:09:14.953Z,1.10
2023-11-16T14:11:41.828Z,1.23
2023-11-16T14:14:09.933Z,1.30
2023-11-16T14:16:39.505Z,1.60
2023-11-16T14:19:07.155Z,1.38
2023-11-16T14:21:36.225Z,1.58
2023-11-16T14:24:08.514Z,1.25
2023-11-16T14:26:36.515Z,2.17
2023-11-16T14:29:04.359Z,1.60
2023-11-16T14:31:31.307Z,1.20
2023-11-16T14:33:58.089Z,1.67
2023-11-16T14:36:25.278Z,1.55
2023-11-16T14:38:52.304Z,1.50
2023-11-16T14:41:19.083Z,1.63
2023-11-16T14:43:46.296Z,1.33
2023-11-16T14:46:13.780Z,1.23
2023-11-16T14:48:40.711Z,1.55
2023-11-16T14:51:08.768Z,1.70
2023-11-16T14:53:39.065Z,1.90
2023-11-16T14:56:08.444Z,2.45
2023-11-16T14:58:36.765Z,2.00
2023-11-16T15:01:05.300Z,2.30
2023-11-16T15:03:32.386Z,2.00
2023-11-16T15:05:59.122Z,2.05
2023-11-16T15:08:29.073Z,2.15
2023-11-16T15:10:55.733Z,1.90
2023-11-16T15:13:22.507Z,1.90
2023-11-16T15:15:51.397Z,1.70
2023-11-16T15:18:18.256Z,2.05
2023-11-16T15:20:44.893Z,1.60
2023-11-16T15:23:11.615Z,2.15
2023-11-16T15:25:38.193Z,2.50
2023-11-16T15:28:05.254Z,2.90
2023-11-16T15:30:31.928Z,3.50
2023-11-16T15:32:58.962Z,3.60
2023-11-16T15:35:26.861Z,2.53
2023-11-16T15:37:57.939Z,2.15
2023-11-16T15:40:26.687Z,1.80
2023-11-16T15:42:53.904Z,2.15
2023-11-16T15:45:20.825Z,2.22
2023-11-16T15:47:59.999Z,1.98
2023-11-16T15:50:28.689Z,2.33
2023-11-16T15:52:55.776Z,2.00
2023-11-16T15:55:22.673Z,1.80
2023-11-16T15:57:51.267Z,1.83
2023-11-16T16:00:20.955Z,2.22
2023-11-16T16:02:49.194Z,2.03
2023-11-16T16:05:16.411Z,1.63
2023-11-16T16:07:43.511Z,2.03
2023-11-16T16:10:10.560Z,1.90
2023-11-16T16:12:37.899Z,2.92
2023-11-16T16:15:07.450Z,2.42
2023-11-16T16:17:34.301Z,1.97
2023-11-16T16:20:01.452Z,2.05
2023-11-16T16:22:28.190Z,2.72
2023-11-16T16:24:55.149Z,3.42
2023-11-16T16:27:21.794Z,2.95
2023-11-16T16:29:48.372Z,1.73
2023-11-16T16:32:14.987Z,2.00
2023-11-16T16:34:41.633Z,1.42
2023-11-16T16:37:08.484Z,1.75
2023-11-16T16:39:38.758Z,2.08
2023-11-16T16:42:05.824Z,1.53
2023-11-16T16:44:32.743Z,1.65
2023-11-16T16:46:59.421Z,1.50
2023-11-16T16:49:29.753Z,1.98
2023-11-16T16:51:59.697Z,2.03
2023-11-16T16:54:26.609Z,2.13
2023-11-16T16:56:53.699Z,1.95
2023-11-16T16:59:20.476Z,2.33
2023-11-16T17:01:47.527Z,2.65
2023-11-16T17:04:14.447Z,3.80
2023-11-16T17:06:41.175Z,3.10
2023-11-16T17:09:09.427Z,2.70
2023-11-16T17:11:37.257Z,2.83
2023-11-16T17:14:04.020Z,4.00
2023-11-16T17:16:31.517Z,2.58
2023-11-16T17:18:58.258Z,3.70
2023-11-16T17:21:25.684Z,2.75
2023-11-16T17:23:55.848Z,2.78
2023-11-16T17:26:22.813Z,2.88
2023-11-16T17:28:50.158Z,2.95
2023-11-16T17:31:18.289Z,3.00
2023-11-16T17:33:45.177Z,2.80
2023-11-16T17:36:13.755Z,2.13
2023-11-16T17:38:40.499Z,2.88
2023-11-16T17:41:13.915Z,2.97
2023-11-16T17:43:41.417Z,2.33
2023-11-16T17:46:09.233Z,2.80
2023-11-16T17:48:36.121Z,3.72
2023-11-16T17:51:05.908Z,3.10
2023-11-16T17:53:33.504Z,3.13
2023-11-16T17:56:01.384Z,2.77
2023-11-16T17:58:28.192Z,1.90
2023-11-16T18:00:57.192Z,3.60
2023-11-16T18:03:24.100Z,3.22
2023-11-16T18:05:51.128Z,3.60
2023-11-16T18:08:18.537Z,3.70
2023-11-16T18:10:49.949Z,3.88
2023-11-16T18:13:18.048Z,3.70
2023-11-16T18:15:45.432Z,4.50
2023-11-16T18:18:12.412Z,4.35
2023-11-16T18:20:40.318Z,4.70
2023-11-16T18:23:09.606Z,5.13
2023-11-16T18:25:41.360Z,5.15
2023-11-16T18:28:14.474Z,5.57
2023-11-16T18:30:51.309Z,5.57
2023-11-16T18:33:19.676Z,4.23
2023-11-16T18:35:53.154Z,3.70
2023-11-16T18:38:24.366Z,5.03
2023-11-16T18:40:51.166Z,4.05
2023-11-16T18:43:20.718Z,2.78
2023-11-16T18:45:48.260Z,3.60
2023-11-16T18:48:15.844Z,3.80
2023-11-16T18:50:45.830Z,2.90
2023-11-16T18:53:13.678Z,2.40
2023-11-16T18:55:41.311Z,3.20
2023-11-16T18:58:08.554Z,2.80
2023-11-16T19:00:37.117Z,3.22
2023-11-16T19:03:16.102Z,3.40
2023-11-16T19:05:46.172Z,2.63
2023-11-16T19:08:16.156Z,4.35
2023-11-16T19:10:43.443Z,2.60
2023-11-16T19:13:11.578Z,2.47
2023-11-16T19:15:42.043Z,3.97
2023-11-16T19:18:11.426Z,3.75
2023-11-16T19:20:38.281Z,4.22
2023-11-16T19:23:17.012Z,4.13
2023-11-16T19:25:50.152Z,3.97
2023-11-16T19:28:17.093Z,2.63
2023-11-16T19:30:48.291Z,3.50
2023-11-16T19:33:15.685Z,3.85
2023-11-16T19:35:43.070Z,3.53
2023-11-16T19:38:13.632Z,3.88
2023-11-16T19:40:42.274Z,4.25
2023-11-16T19:43:11.688Z,3.53
2023-11-16T19:45:39.338Z,4.45
2023-11-16T19:48:07.304Z,4.63
2023-11-16T19:50:38.850Z,4.22
2023-11-16T19:53:07.052Z,4.78
2023-11-16T19:55:36.666Z,5.65
2023-11-16T19:58:03.447Z,5.82
2023-11-16T20:00:30.065Z,4.63
2023-11-16T20:02:56.910Z,5.00
2023-11-16T20:05:23.700Z,5.07
2023-11-16T20:07:50.441Z,4.85
2023-11-16T20:10:17.728Z,5.60
2023-11-16T20:12:47.416Z,4.60
2023-11-16T20:15:14.489Z,6.20
2023-11-16T20:17:46.271Z,6.97
2023-11-16T20:20:16.736Z,5.78
2023-11-16T20:22:47.840Z,5.55
2023-11-16T20:25:18.592Z,5.33
2023-11-16T20:27:46.049Z,5.78
2023-11-16T20:30:13.018Z,4.50
2023-11-16T20:32:40.595Z,6.68
2023-11-16T20:35:09.982Z,5.07
2023-11-16T20:37:43.335Z,3.83
2023-11-16T20:40:15.167Z,4.10
2023-11-16T20:42:42.432Z,4.40
2023-11-16T20:45:12.116Z,4.15
2023-11-16T20:47:41.089Z,4.43
2023-11-16T20:50:08.167Z,4.27
2023-11-16T20:52:35.721Z,4.22
2023-11-16T20:55:02.814Z,3.90
2023-11-16T20:57:29.463Z,4.38
2023-11-16T20:59:57.366Z,4.30
2023-11-16T21:02:24.115Z,4.03
2023-11-16T21:04:50.757Z,4.82
2023-11-16T21:07:17.931Z,4.85
2023-11-16T21:09:44.885Z,6.05
2023-11-16T21:12:11.570Z,6.13
2023-11-16T21:14:38.923Z,5.10
2023-11-16T21:17:06.025Z,5.30
2023-11-16T21:19:32.781Z,4.97
2023-11-16T21:21:59.730Z,4.97
2023-11-16T21:24:26.457Z,5.28
2023-11-16T21:26:53.140Z,4.73
2023-11-16T21:29:19.700Z,4.40
2023-11-16T21:31:47.704Z,5.45
2023-11-16T21:34:15.699Z,4.95
2023-11-16T21:36:42.848Z,7.03
2023-11-16T21:39:13.102Z,4.77
2023-11-16T21:41:41.888Z,5.93
2023-11-16T21:44:08.914Z,6.15
2023-11-16T21:46:38.884Z,6.05
2023-11-16T21:49:08.129Z,5.68
2023-11-16T21:51:35.482Z,4.87
2023-11-16T21:54:02.122Z,5.45
2023-11-16T21:56:30.960Z,5.53
2023-11-16T21:58:57.866Z,5.35
2023-11-16T22:01:24.692Z,4.80
2023-11-16T22:03:51.500Z,4.77
2023-11-16T22:06:18.166Z,5.40
2023-11-16T22:08:44.941Z,4.75
2023-11-16T22:11:11.803Z,4.60
2023-11-16T22:13:38.820Z,5.75
2023-11-16T22:16:06.147Z,5.17
2023-11-16T22:18:35.612Z,5.25
2023-11-16T22:21:02.837Z,4.38
2023-11-16T22:23:30.297Z,4.95
2023-11-16T22:25:57.429Z,5.45
2023-11-16T22:28:25.227Z,5.80
2023-11-16T22:30:51.855Z,4.50
2023-11-16T22:33:18.489Z,4.90
2023-11-16T22:35:44.977Z,4.97
2023-11-16T22:38:12.900Z,5.50
2023-11-16T22:40:39.932Z,5.77
2023-11-16T22:43:07.470Z,5.72
2023-11-16T22:45:35.320Z,5.40
2023-11-16T22:48:05.259Z,4.85
2023-11-16T22:50:32.038Z,5.13
2023-11-16T22:52:59.971Z,5.83
2023-11-16T22:55:26.798Z,5.68
2023-11-16T22:57:55.073Z,5.88
2023-11-16T23:00:30.486Z,5.55
2023-11-16T23:02:57.231Z,5.78
2023-11-16T23:05:23.929Z,5.53
2023-11-16T23:07:50.590Z,4.93
2023-11-16T23:10:17.925Z,5.03
2023-11-16T23:12:49.674Z,5.15
2023-11-16T23:15:18.523Z,4.63
2023-11-16T23:17:45.268Z,4.83
2023-11-16T23:20:13.760Z,4.60
2023-11-16T23:22:41.227Z,6.10
2023-11-16T23:25:09.005Z,5.13
2023-11-16T23:27:37.633Z,4.90
2023-11-16T23:30:06.187Z,4.57
2023-11-16T23:32:35.275Z,4.68
2023-11-16T23:35:02.129Z,5.43
2023-11-16T23:37:29.441Z,4.18
2023-11-16T23:39:56.482Z,4.78
2023-11-16T23:42:24.069Z,5.17
2023-11-16T23:44:51.833Z,4.93
2023-11-16T23:47:19.944Z,4.82
2023-11-16T23:49:47.127Z,4.90
2023-11-16T23:52:14.123Z,4.35
2023-11-16T23:54:42.037Z,4.00
2023-11-16T23:57:08.850Z,3.67
2023-11-16T23:59:38.398Z,4.32
